sensor_id;sensor_type;location;lat;lon;timestamp;P1;durP1;ratioP1;P2;durP2;ratioP2
18449;SDS011;9354;50.194;7.690;2022-09-27T00:00:38;3.67;;;1.10;;
18449;SDS011;9354;50.194;7.690;2022-09-27T00:03:07;3.10;;;0.93;;
18449;SDS011;9354;50.194;7.690;2022-09-27T00:05:35;13.70;;;1.60;;
18449;SDS011;9354;50.194;7.690;2022-09-27T00:08:03;7.67;;;1.40;;
18449;SDS011;9354;50.194;7.690;2022-09-27T00:10:31;6.70;;;1.60;;
18449;SDS011;9354;50.194;7.690;2022-09-27T00:12:58;2.80;;;1.10;;
18449;SDS011;9354;50.194;7.690;2022-09-27T00:15:27;7.53;;;1.60;;
18449;SDS011;9354;50.194;7.690;2022-09-27T00:17:55;7.23;;;1.40;;
18449;SDS011;9354;50.194;7.690;2022-09-27T00:20:22;7.87;;;1.33;;
18449;SDS011;9354;50.194;7.690;2022-09-27T00:22:50;4.07;;;1.30;;
18449;SDS011;9354;50.194;7.690;2022-09-27T00:25:18;5.53;;;1.50;;
18449;SDS011;9354;50.194;7.690;2022-09-27T00:27:45;10.23;;;1.80;;
18449;SDS011;9354;50.194;7.690;2022-09-27T00:30:14;5.73;;;1.50;;
18449;SDS011;9354;50.194;7.690;2022-09-27T00:32:43;5.03;;;1.37;;
18449;SDS011;9354;50.194;7.690;2022-09-27T00:35:10;8.03;;;1.40;;
18449;SDS011;9354;50.194;7.690;2022-09-27T00:37:38;4.30;;;1.60;;
18449;SDS011;9354;50.194;7.690;2022-09-27T00:40:06;3.80;;;1.33;;
18449;SDS011;9354;50.194;7.690;2022-09-27T00:42:34;7.27;;;1.70;;
18449;SDS011;9354;50.194;7.690;2022-09-27T00:45:03;6.00;;;1.60;;
18449;SDS011;9354;50.194;7.690;2022-09-27T00:47:44;5.33;;;1.67;;
18449;SDS011;9354;50.194;7.690;2022-09-27T00:50:25;5.27;;;1.43;;
18449;SDS011;9354;50.194;7.690;2022-09-27T00:53:02;7.47;;;1.70;;
18449;SDS011;9354;50.194;7.690;2022-09-27T00:55:35;6.70;;;1.50;;
18449;SDS011;9354;50.194;7.690;2022-09-27T00:58:06;2.20;;;1.10;;
18449;SDS011;9354;50.194;7.690;2022-09-27T01:00:35;5.37;;;1.20;;
18449;SDS011;9354;50.194;7.690;2022-09-27T01:03:09;6.27;;;1.17;;
18449;SDS011;9354;50.194;7.690;2022-09-27T01:05:41;4.07;;;1.40;;
18449;SDS011;9354;50.194;7.690;2022-09-27T01:08:08;5.67;;;1.43;;
18449;SDS011;9354;50.194;7.690;2022-09-27T01:10:39;5.37;;;1.50;;
18449;SDS011;9354;50.194;7.690;2022-09-27T01:13:26;4.87;;;1.50;;
18449;SDS011;9354;50.194;7.690;2022-09-27T01:16:03;2.90;;;1.30;;
18449;SDS011;9354;50.194;7.690;2022-09-27T01:18:40;2.67;;;1.20;;
18449;SDS011;9354;50.194;7.690;2022-09-27T01:21:22;4.73;;;1.30;;
18449;SDS011;9354;50.194;7.690;2022-09-27T01:24:09;2.97;;;1.00;;
18449;SDS011;9354;50.194;7.690;2022-09-27T01:27:17;3.00;;;1.00;;
18449;SDS011;9354;50.194;7.690;2022-09-27T01:30:22;4.87;;;1.10;;
18449;SDS011;9354;50.194;7.690;2022-09-27T01:33:05;5.17;;;1.53;;
18449;SDS011;9354;50.194;7.690;2022-09-27T01:36:05;2.57;;;1.07;;
18449;SDS011;9354;50.194;7.690;2022-09-27T01:38:41;1.33;;;0.90;;
18449;SDS011;9354;50.194;7.690;2022-09-27T01:41:21;2.67;;;1.00;;
18449;SDS011;9354;50.194;7.690;2022-09-27T01:43:54;4.30;;;1.00;;
18449;SDS011;9354;50.194;7.690;2022-09-27T01:46:28;3.87;;;0.90;;
18449;SDS011;9354;50.194;7.690;2022-09-27T01:48:59;2.33;;;1.00;;
18449;SDS011;9354;50.194;7.690;2022-09-27T01:51:32;3.73;;;0.93;;
18449;SDS011;9354;50.194;7.690;2022-09-27T01:54:05;2.93;;;0.90;;
18449;SDS011;9354;50.194;7.690;2022-09-27T01:56:38;3.20;;;1.07;;
18449;SDS011;9354;50.194;7.690;2022-09-27T01:59:10;5.30;;;0.80;;
18449;SDS011;9354;50.194;7.690;2022-09-27T02:01:42;3.70;;;0.87;;
18449;SDS011;9354;50.194;7.690;2022-09-27T02:04:14;2.27;;;0.80;;
18449;SDS011;9354;50.194;7.690;2022-09-27T02:06:47;1.63;;;0.90;;
18449;SDS011;9354;50.194;7.690;2022-09-27T02:09:21;0.90;;;0.70;;
18449;SDS011;9354;50.194;7.690;2022-09-27T02:11:54;2.90;;;0.90;;
18449;SDS011;9354;50.194;7.690;2022-09-27T02:14:26;2.20;;;0.70;;
18449;SDS011;9354;50.194;7.690;2022-09-27T02:17:06;4.87;;;0.77;;
18449;SDS011;9354;50.194;7.690;2022-09-27T02:19:43;1.70;;;0.73;;
18449;SDS011;9354;50.194;7.690;2022-09-27T02:22:22;0.73;;;0.50;;
18449;SDS011;9354;50.194;7.690;2022-09-27T02:25:06;1.77;;;0.60;;
18449;SDS011;9354;50.194;7.690;2022-09-27T02:27:48;2.67;;;0.50;;
18449;SDS011;9354;50.194;7.690;2022-09-27T02:30:21;0.40;;;0.37;;
18449;SDS011;9354;50.194;7.690;2022-09-27T02:32:50;1.47;;;0.30;;
18449;SDS011;9354;50.194;7.690;2022-09-27T02:35:18;0.97;;;0.40;;
18449;SDS011;9354;50.194;7.690;2022-09-27T02:37:50;0.93;;;0.30;;
18449;SDS011;9354;50.194;7.690;2022-09-27T02:40:18;1.30;;;0.43;;
18449;SDS011;9354;50.194;7.690;2022-09-27T02:42:45;0.20;;;0.20;;
18449;SDS011;9354;50.194;7.690;2022-09-27T02:45:14;0.60;;;0.40;;
18449;SDS011;9354;50.194;7.690;2022-09-27T02:47:47;3.30;;;0.30;;
18449;SDS011;9354;50.194;7.690;2022-09-27T02:50:26;1.77;;;0.50;;
18449;SDS011;9354;50.194;7.690;2022-09-27T02:53:08;0.40;;;0.20;;
18449;SDS011;9354;50.194;7.690;2022-09-27T02:55:45;0.23;;;0.23;;
18449;SDS011;9354;50.194;7.690;2022-09-27T02:58:22;0.30;;;0.27;;
18449;SDS011;9354;50.194;7.690;2022-09-27T03:00:56;0.10;;;0.10;;
18449;SDS011;9354;50.194;7.690;2022-09-27T03:03:33;0.33;;;0.30;;
18449;SDS011;9354;50.194;7.690;2022-09-27T03:06:05;3.10;;;0.40;;
18449;SDS011;9354;50.194;7.690;2022-09-27T03:08:35;0.30;;;0.30;;
18449;SDS011;9354;50.194;7.690;2022-09-27T03:11:03;4.17;;;0.33;;
18449;SDS011;9354;50.194;7.690;2022-09-27T03:13:31;0.30;;;0.30;;
18449;SDS011;9354;50.194;7.690;2022-09-27T03:16:01;0.53;;;0.30;;
18449;SDS011;9354;50.194;7.690;2022-09-27T03:18:28;0.70;;;0.30;;
18449;SDS011;9354;50.194;7.690;2022-09-27T03:20:57;0.50;;;0.30;;
18449;SDS011;9354;50.194;7.690;2022-09-27T03:23:24;0.40;;;0.30;;
18449;SDS011;9354;50.194;7.690;2022-09-27T03:25:52;0.30;;;0.30;;
18449;SDS011;9354;50.194;7.690;2022-09-27T03:28:19;1.20;;;0.30;;
18449;SDS011;9354;50.194;7.690;2022-09-27T03:30:47;0.40;;;0.40;;
18449;SDS011;9354;50.194;7.690;2022-09-27T03:33:14;1.40;;;0.60;;
18449;SDS011;9354;50.194;7.690;2022-09-27T03:35:42;0.93;;;0.30;;
18449;SDS011;9354;50.194;7.690;2022-09-27T03:38:11;0.33;;;0.30;;
18449;SDS011;9354;50.194;7.690;2022-09-27T03:40:38;1.00;;;0.60;;
18449;SDS011;9354;50.194;7.690;2022-09-27T03:43:06;1.90;;;0.60;;
18449;SDS011;9354;50.194;7.690;2022-09-27T03:45:33;2.80;;;1.10;;
18449;SDS011;9354;50.194;7.690;2022-09-27T03:48:01;1.10;;;0.37;;
18449;SDS011;9354;50.194;7.690;2022-09-27T03:50:28;2.23;;;0.50;;
18449;SDS011;9354;50.194;7.690;2022-09-27T03:52:56;13.90;;;3.90;;
18449;SDS011;9354;50.194;7.690;2022-09-27T03:55:25;14.17;;;2.90;;
18449;SDS011;9354;50.194;7.690;2022-09-27T03:57:52;8.30;;;2.10;;
18449;SDS011;9354;50.194;7.690;2022-09-27T04:00:20;14.43;;;3.43;;
18449;SDS011;9354;50.194;7.690;2022-09-27T04:02:49;2.97;;;1.13;;
18449;SDS011;9354;50.194;7.690;2022-09-27T04:05:16;3.60;;;0.80;;
18449;SDS011;9354;50.194;7.690;2022-09-27T04:07:45;0.30;;;0.30;;
18449;SDS011;9354;50.194;7.690;2022-09-27T04:10:14;1.53;;;0.70;;
18449;SDS011;9354;50.194;7.690;2022-09-27T04:12:43;2.50;;;0.60;;
18449;SDS011;9354;50.194;7.690;2022-09-27T04:15:11;1.93;;;0.50;;
18449;SDS011;9354;50.194;7.690;2022-09-27T04:17:39;0.83;;;0.50;;
18449;SDS011;9354;50.194;7.690;2022-09-27T04:20:07;0.40;;;0.40;;
18449;SDS011;9354;50.194;7.690;2022-09-27T04:22:37;0.93;;;0.73;;
18449;SDS011;9354;50.194;7.690;2022-09-27T04:25:06;1.63;;;0.80;;
18449;SDS011;9354;50.194;7.690;2022-09-27T04:27:35;1.00;;;0.70;;
18449;SDS011;9354;50.194;7.690;2022-09-27T04:30:04;1.07;;;0.60;;
18449;SDS011;9354;50.194;7.690;2022-09-27T04:32:33;3.60;;;1.07;;
18449;SDS011;9354;50.194;7.690;2022-09-27T04:35:00;1.87;;;0.60;;
18449;SDS011;9354;50.194;7.690;2022-09-27T04:37:45;1.60;;;0.47;;
18449;SDS011;9354;50.194;7.690;2022-09-27T04:40:13;1.33;;;0.40;;
18449;SDS011;9354;50.194;7.690;2022-09-27T04:42:41;0.80;;;0.47;;
18449;SDS011;9354;50.194;7.690;2022-09-27T04:45:10;0.70;;;0.50;;
18449;SDS011;9354;50.194;7.690;2022-09-27T04:47:41;1.40;;;0.43;;
18449;SDS011;9354;50.194;7.690;2022-09-27T04:50:08;1.77;;;0.40;;
18449;SDS011;9354;50.194;7.690;2022-09-27T04:52:36;1.10;;;0.70;;
18449;SDS011;9354;50.194;7.690;2022-09-27T04:55:05;1.63;;;0.60;;
18449;SDS011;9354;50.194;7.690;2022-09-27T04:57:33;0.93;;;0.70;;
18449;SDS011;9354;50.194;7.690;2022-09-27T05:00:01;1.40;;;0.80;;
18449;SDS011;9354;50.194;7.690;2022-09-27T05:02:31;1.43;;;0.60;;
18449;SDS011;9354;50.194;7.690;2022-09-27T05:04:59;2.30;;;0.50;;
18449;SDS011;9354;50.194;7.690;2022-09-27T05:07:26;2.93;;;0.60;;
18449;SDS011;9354;50.194;7.690;2022-09-27T05:09:54;1.17;;;0.57;;
18449;SDS011;9354;50.194;7.690;2022-09-27T05:12:22;4.90;;;1.03;;
18449;SDS011;9354;50.194;7.690;2022-09-27T05:14:51;0.70;;;0.50;;
18449;SDS011;9354;50.194;7.690;2022-09-27T05:17:18;4.90;;;0.60;;
18449;SDS011;9354;50.194;7.690;2022-09-27T05:19:48;1.60;;;0.63;;
18449;SDS011;9354;50.194;7.690;2022-09-27T05:22:16;3.50;;;0.77;;
18449;SDS011;9354;50.194;7.690;2022-09-27T05:24:44;1.53;;;0.70;;
18449;SDS011;9354;50.194;7.690;2022-09-27T05:27:13;1.40;;;0.47;;
18449;SDS011;9354;50.194;7.690;2022-09-27T05:29:43;1.50;;;0.40;;
18449;SDS011;9354;50.194;7.690;2022-09-27T05:32:10;0.50;;;0.50;;
18449;SDS011;9354;50.194;7.690;2022-09-27T05:34:38;3.27;;;0.40;;
18449;SDS011;9354;50.194;7.690;2022-09-27T05:37:07;1.13;;;0.30;;
18449;SDS011;9354;50.194;7.690;2022-09-27T05:39:35;0.20;;;0.20;;
18449;SDS011;9354;50.194;7.690;2022-09-27T05:42:02;1.00;;;0.40;;
18449;SDS011;9354;50.194;7.690;2022-09-27T05:44:31;1.00;;;0.30;;
18449;SDS011;9354;50.194;7.690;2022-09-27T05:47:00;0.30;;;0.30;;
18449;SDS011;9354;50.194;7.690;2022-09-27T05:49:28;2.17;;;0.30;;
18449;SDS011;9354;50.194;7.690;2022-09-27T05:51:56;0.70;;;0.37;;
18449;SDS011;9354;50.194;7.690;2022-09-27T05:54:25;1.50;;;0.40;;
18449;SDS011;9354;50.194;7.690;2022-09-27T05:56:54;3.10;;;0.30;;
18449;SDS011;9354;50.194;7.690;2022-09-27T05:59:23;0.40;;;0.30;;
18449;SDS011;9354;50.194;7.690;2022-09-27T06:01:51;1.33;;;0.30;;
18449;SDS011;9354;50.194;7.690;2022-09-27T06:04:19;0.27;;;0.20;;
18449;SDS011;9354;50.194;7.690;2022-09-27T06:06:47;1.03;;;0.40;;
18449;SDS011;9354;50.194;7.690;2022-09-27T06:09:15;1.07;;;0.30;;
18449;SDS011;9354;50.194;7.690;2022-09-27T06:11:44;2.03;;;0.47;;
18449;SDS011;9354;50.194;7.690;2022-09-27T06:14:12;1.20;;;0.37;;
18449;SDS011;9354;50.194;7.690;2022-09-27T06:16:40;0.70;;;0.33;;
18449;SDS011;9354;50.194;7.690;2022-09-27T06:19:07;2.63;;;0.40;;
18449;SDS011;9354;50.194;7.690;2022-09-27T06:21:34;0.57;;;0.30;;
18449;SDS011;9354;50.194;7.690;2022-09-27T06:24:02;1.70;;;0.43;;
18449;SDS011;9354;50.194;7.690;2022-09-27T06:26:30;1.50;;;0.40;;
18449;SDS011;9354;50.194;7.690;2022-09-27T06:28:59;0.60;;;0.40;;
18449;SDS011;9354;50.194;7.690;2022-09-27T06:31:26;1.90;;;0.30;;
18449;SDS011;9354;50.194;7.690;2022-09-27T06:33:54;2.47;;;0.30;;
18449;SDS011;9354;50.194;7.690;2022-09-27T06:36:21;0.97;;;0.50;;
18449;SDS011;9354;50.194;7.690;2022-09-27T06:38:49;2.80;;;0.40;;
18449;SDS011;9354;50.194;7.690;2022-09-27T06:41:16;2.07;;;0.47;;
18449;SDS011;9354;50.194;7.690;2022-09-27T06:43:44;1.63;;;0.50;;
18449;SDS011;9354;50.194;7.690;2022-09-27T06:46:15;1.37;;;0.53;;
18449;SDS011;9354;50.194;7.690;2022-09-27T06:48:42;0.43;;;0.43;;
18449;SDS011;9354;50.194;7.690;2022-09-27T06:51:09;0.40;;;0.40;;
18449;SDS011;9354;50.194;7.690;2022-09-27T06:53:37;2.43;;;0.60;;
18449;SDS011;9354;50.194;7.690;2022-09-27T06:56:05;6.43;;;0.40;;
18449;SDS011;9354;50.194;7.690;2022-09-27T06:58:32;2.20;;;0.50;;
18449;SDS011;9354;50.194;7.690;2022-09-27T07:01:18;1.70;;;0.40;;
18449;SDS011;9354;50.194;7.690;2022-09-27T07:03:48;0.60;;;0.50;;
18449;SDS011;9354;50.194;7.690;2022-09-27T07:06:16;1.33;;;0.50;;
18449;SDS011;9354;50.194;7.690;2022-09-27T07:08:48;1.63;;;1.00;;
18449;SDS011;9354;50.194;7.690;2022-09-27T07:11:18;1.87;;;0.70;;
18449;SDS011;9354;50.194;7.690;2022-09-27T07:13:47;1.03;;;0.53;;
18449;SDS011;9354;50.194;7.690;2022-09-27T07:16:16;0.83;;;0.50;;
18449;SDS011;9354;50.194;7.690;2022-09-27T07:18:45;0.87;;;0.53;;
18449;SDS011;9354;50.194;7.690;2022-09-27T07:21:14;0.50;;;0.40;;
18449;SDS011;9354;50.194;7.690;2022-09-27T07:23:41;4.03;;;0.87;;
18449;SDS011;9354;50.194;7.690;2022-09-27T07:26:09;1.53;;;0.40;;
18449;SDS011;9354;50.194;7.690;2022-09-27T07:28:37;3.77;;;0.63;;
18449;SDS011;9354;50.194;7.690;2022-09-27T07:31:08;3.80;;;1.07;;
18449;SDS011;9354;50.194;7.690;2022-09-27T07:33:36;4.00;;;1.33;;
18449;SDS011;9354;50.194;7.690;2022-09-27T07:36:09;2.73;;;0.93;;
18449;SDS011;9354;50.194;7.690;2022-09-27T07:38:38;1.53;;;0.50;;
18449;SDS011;9354;50.194;7.690;2022-09-27T07:41:05;2.17;;;0.57;;
18449;SDS011;9354;50.194;7.690;2022-09-27T07:43:33;1.43;;;0.50;;
18449;SDS011;9354;50.194;7.690;2022-09-27T07:46:01;0.97;;;0.57;;
18449;SDS011;9354;50.194;7.690;2022-09-27T07:48:29;2.53;;;0.60;;
18449;SDS011;9354;50.194;7.690;2022-09-27T07:50:57;3.50;;;0.50;;
18449;SDS011;9354;50.194;7.690;2022-09-27T07:53:26;1.73;;;0.60;;
18449;SDS011;9354;50.194;7.690;2022-09-27T07:55:53;0.93;;;0.60;;
18449;SDS011;9354;50.194;7.690;2022-09-27T07:58:21;1.70;;;0.57;;
18449;SDS011;9354;50.194;7.690;2022-09-27T08:00:49;1.63;;;0.70;;
18449;SDS011;9354;50.194;7.690;2022-09-27T08:03:16;0.60;;;0.50;;
18449;SDS011;9354;50.194;7.690;2022-09-27T08:05:44;1.57;;;0.60;;
18449;SDS011;9354;50.194;7.690;2022-09-27T08:08:13;1.33;;;0.60;;
18449;SDS011;9354;50.194;7.690;2022-09-27T08:10:42;2.97;;;0.67;;
18449;SDS011;9354;50.194;7.690;2022-09-27T08:13:12;1.73;;;0.50;;
18449;SDS011;9354;50.194;7.690;2022-09-27T08:15:44;0.67;;;0.40;;
18449;SDS011;9354;50.194;7.690;2022-09-27T08:18:13;2.33;;;0.40;;
18449;SDS011;9354;50.194;7.690;2022-09-27T08:20:41;1.37;;;0.70;;
18449;SDS011;9354;50.194;7.690;2022-09-27T08:23:08;0.70;;;0.43;;
18449;SDS011;9354;50.194;7.690;2022-09-27T08:25:35;0.40;;;0.30;;
18449;SDS011;9354;50.194;7.690;2022-09-27T08:28:06;0.40;;;0.40;;
18449;SDS011;9354;50.194;7.690;2022-09-27T08:30:34;0.77;;;0.40;;
18449;SDS011;9354;50.194;7.690;2022-09-27T08:33:02;1.27;;;0.40;;
18449;SDS011;9354;50.194;7.690;2022-09-27T08:35:30;0.50;;;0.40;;
18449;SDS011;9354;50.194;7.690;2022-09-27T08:37:59;2.43;;;0.53;;
18449;SDS011;9354;50.194;7.690;2022-09-27T08:40:30;2.17;;;0.80;;
18449;SDS011;9354;50.194;7.690;2022-09-27T08:43:12;2.00;;;0.73;;
18449;SDS011;9354;50.194;7.690;2022-09-27T08:45:50;2.20;;;0.40;;
18449;SDS011;9354;50.194;7.690;2022-09-27T08:48:33;2.03;;;0.57;;
18449;SDS011;9354;50.194;7.690;2022-09-27T08:51:04;0.77;;;0.50;;
18449;SDS011;9354;50.194;7.690;2022-09-27T08:53:37;0.50;;;0.40;;
18449;SDS011;9354;50.194;7.690;2022-09-27T08:56:09;2.00;;;0.53;;
18449;SDS011;9354;50.194;7.690;2022-09-27T08:58:40;3.17;;;0.60;;
18449;SDS011;9354;50.194;7.690;2022-09-27T09:01:13;8.67;;;0.53;;
18449;SDS011;9354;50.194;7.690;2022-09-27T09:03:43;1.07;;;0.50;;
18449;SDS011;9354;50.194;7.690;2022-09-27T09:06:16;1.87;;;0.57;;
18449;SDS011;9354;50.194;7.690;2022-09-27T09:08:50;0.80;;;0.47;;
18449;SDS011;9354;50.194;7.690;2022-09-27T09:11:26;2.70;;;0.70;;
18449;SDS011;9354;50.194;7.690;2022-09-27T09:14:33;1.40;;;0.50;;
18449;SDS011;9354;50.194;7.690;2022-09-27T09:17:12;1.70;;;0.60;;
18449;SDS011;9354;50.194;7.690;2022-09-27T09:19:56;0.60;;;0.40;;
18449;SDS011;9354;50.194;7.690;2022-09-27T09:22:41;1.30;;;0.50;;
18449;SDS011;9354;50.194;7.690;2022-09-27T09:25:21;1.23;;;0.60;;
18449;SDS011;9354;50.194;7.690;2022-09-27T09:27:59;2.40;;;0.87;;
18449;SDS011;9354;50.194;7.690;2022-09-27T09:30:38;1.20;;;0.60;;
18449;SDS011;9354;50.194;7.690;2022-09-27T09:33:19;0.90;;;0.80;;
18449;SDS011;9354;50.194;7.690;2022-09-27T09:35:51;1.90;;;1.07;;
18449;SDS011;9354;50.194;7.690;2022-09-27T09:38:24;3.67;;;0.60;;
18449;SDS011;9354;50.194;7.690;2022-09-27T09:41:01;1.13;;;0.60;;
18449;SDS011;9354;50.194;7.690;2022-09-27T09:43:32;2.33;;;0.57;;
18449;SDS011;9354;50.194;7.690;2022-09-27T09:46:08;2.63;;;0.70;;
18449;SDS011;9354;50.194;7.690;2022-09-27T09:48:41;0.87;;;0.43;;
18449;SDS011;9354;50.194;7.690;2022-09-27T09:51:12;1.17;;;0.60;;
18449;SDS011;9354;50.194;7.690;2022-09-27T09:53:48;2.77;;;0.40;;
18449;SDS011;9354;50.194;7.690;2022-09-27T09:56:21;1.53;;;0.50;;
18449;SDS011;9354;50.194;7.690;2022-09-27T09:58:53;2.23;;;0.60;;
18449;SDS011;9354;50.194;7.690;2022-09-27T10:01:25;0.53;;;0.40;;
18449;SDS011;9354;50.194;7.690;2022-09-27T10:03:55;3.10;;;0.90;;
18449;SDS011;9354;50.194;7.690;2022-09-27T10:06:23;3.13;;;0.50;;
18449;SDS011;9354;50.194;7.690;2022-09-27T10:08:52;1.20;;;0.60;;
18449;SDS011;9354;50.194;7.690;2022-09-27T10:11:21;1.60;;;0.57;;
18449;SDS011;9354;50.194;7.690;2022-09-27T10:13:50;2.40;;;0.70;;
18449;SDS011;9354;50.194;7.690;2022-09-27T10:16:21;5.87;;;0.60;;
18449;SDS011;9354;50.194;7.690;2022-09-27T10:18:52;0.97;;;0.67;;
18449;SDS011;9354;50.194;7.690;2022-09-27T10:21:24;0.60;;;0.50;;
18449;SDS011;9354;50.194;7.690;2022-09-27T10:24:01;3.13;;;0.70;;
18449;SDS011;9354;50.194;7.690;2022-09-27T10:26:30;1.67;;;0.80;;
18449;SDS011;9354;50.194;7.690;2022-09-27T10:29:02;0.67;;;0.60;;
18449;SDS011;9354;50.194;7.690;2022-09-27T10:31:50;2.00;;;0.70;;
18449;SDS011;9354;50.194;7.690;2022-09-27T10:34:23;0.63;;;0.47;;
18449;SDS011;9354;50.194;7.690;2022-09-27T10:37:01;4.50;;;0.80;;
18449;SDS011;9354;50.194;7.690;2022-09-27T10:39:31;1.53;;;0.70;;
18449;SDS011;9354;50.194;7.690;2022-09-27T10:41:58;1.57;;;0.77;;
18449;SDS011;9354;50.194;7.690;2022-09-27T10:44:26;5.80;;;1.60;;
18449;SDS011;9354;50.194;7.690;2022-09-27T10:46:57;11.80;;;2.80;;
18449;SDS011;9354;50.194;7.690;2022-09-27T10:49:32;4.17;;;1.77;;
18449;SDS011;9354;50.194;7.690;2022-09-27T10:52:02;0.87;;;0.60;;
18449;SDS011;9354;50.194;7.690;2022-09-27T10:54:32;2.80;;;0.93;;
18449;SDS011;9354;50.194;7.690;2022-09-27T10:57:01;1.53;;;1.43;;
18449;SDS011;9354;50.194;7.690;2022-09-27T10:59:32;1.37;;;0.77;;
18449;SDS011;9354;50.194;7.690;2022-09-27T11:02:01;1.03;;;0.80;;
18449;SDS011;9354;50.194;7.690;2022-09-27T11:04:33;2.07;;;0.70;;
18449;SDS011;9354;50.194;7.690;2022-09-27T11:07:11;2.13;;;1.00;;
18449;SDS011;9354;50.194;7.690;2022-09-27T11:09:44;0.80;;;0.60;;
18449;SDS011;9354;50.194;7.690;2022-09-27T11:12:13;1.73;;;0.70;;
18449;SDS011;9354;50.194;7.690;2022-09-27T11:14:48;1.70;;;0.80;;
18449;SDS011;9354;50.194;7.690;2022-09-27T11:17:25;1.43;;;0.70;;
18449;SDS011;9354;50.194;7.690;2022-09-27T11:23:13;3.60;;;0.70;;
18449;SDS011;9354;50.194;7.690;2022-09-27T11:25:55;2.43;;;0.60;;
18449;SDS011;9354;50.194;7.690;2022-09-27T11:28:35;1.53;;;0.60;;
18449;SDS011;9354;50.194;7.690;2022-09-27T11:31:17;6.07;;;1.83;;
18449;SDS011;9354;50.194;7.690;2022-09-27T11:33:59;1.87;;;1.07;;
18449;SDS011;9354;50.194;7.690;2022-09-27T11:36:46;5.33;;;1.43;;
18449;SDS011;9354;50.194;7.690;2022-09-27T11:39:27;6.20;;;1.90;;
18449;SDS011;9354;50.194;7.690;2022-09-27T11:42:09;6.53;;;1.60;;
18449;SDS011;9354;50.194;7.690;2022-09-27T11:45:01;7.70;;;2.70;;
18449;SDS011;9354;50.194;7.690;2022-09-27T11:47:45;2.63;;;0.80;;
18449;SDS011;9354;50.194;7.690;2022-09-27T11:53:19;1.63;;;0.60;;
18449;SDS011;9354;50.194;7.690;2022-09-27T11:56:00;1.80;;;0.93;;
18449;SDS011;9354;50.194;7.690;2022-09-27T11:58:35;1.97;;;1.03;;
18449;SDS011;9354;50.194;7.690;2022-09-27T12:01:15;4.37;;;1.80;;
18449;SDS011;9354;50.194;7.690;2022-09-27T12:07:02;4.20;;;1.60;;
18449;SDS011;9354;50.194;7.690;2022-09-27T12:09:38;5.33;;;2.00;;
18449;SDS011;9354;50.194;7.690;2022-09-27T12:12:10;5.30;;;2.13;;
18449;SDS011;9354;50.194;7.690;2022-09-27T12:14:42;0.93;;;0.87;;
18449;SDS011;9354;50.194;7.690;2022-09-27T12:17:14;0.93;;;0.60;;
18449;SDS011;9354;50.194;7.690;2022-09-27T12:19:45;1.10;;;0.57;;
18449;SDS011;9354;50.194;7.690;2022-09-27T12:22:18;2.03;;;0.60;;
18449;SDS011;9354;50.194;7.690;2022-09-27T12:24:51;0.50;;;0.50;;
18449;SDS011;9354;50.194;7.690;2022-09-27T12:27:23;1.73;;;0.60;;
18449;SDS011;9354;50.194;7.690;2022-09-27T12:30:00;1.20;;;0.80;;
18449;SDS011;9354;50.194;7.690;2022-09-27T12:32:29;1.13;;;0.73;;
18449;SDS011;9354;50.194;7.690;2022-09-27T12:35:04;1.63;;;0.77;;
18449;SDS011;9354;50.194;7.690;2022-09-27T12:37:36;1.63;;;0.67;;
18449;SDS011;9354;50.194;7.690;2022-09-27T12:40:14;3.07;;;0.80;;
18449;SDS011;9354;50.194;7.690;2022-09-27T12:42:46;2.33;;;1.00;;
18449;SDS011;9354;50.194;7.690;2022-09-27T12:45:19;3.03;;;1.30;;
18449;SDS011;9354;50.194;7.690;2022-09-27T12:48:00;0.90;;;0.60;;
18449;SDS011;9354;50.194;7.690;2022-09-27T12:50:37;1.80;;;0.70;;
18449;SDS011;9354;50.194;7.690;2022-09-27T12:53:11;2.80;;;0.73;;
18449;SDS011;9354;50.194;7.690;2022-09-27T12:58:42;0.70;;;0.57;;
18449;SDS011;9354;50.194;7.690;2022-09-27T13:01:24;2.30;;;0.70;;
18449;SDS011;9354;50.194;7.690;2022-09-27T13:04:16;1.83;;;1.00;;
18449;SDS011;9354;50.194;7.690;2022-09-27T13:06:58;2.00;;;0.70;;
18449;SDS011;9354;50.194;7.690;2022-09-27T13:09:45;0.60;;;0.50;;
18449;SDS011;9354;50.194;7.690;2022-09-27T13:12:26;1.13;;;0.70;;
18449;SDS011;9354;50.194;7.690;2022-09-27T13:14:57;3.13;;;0.70;;
18449;SDS011;9354;50.194;7.690;2022-09-27T13:17:30;0.90;;;0.63;;
18449;SDS011;9354;50.194;7.690;2022-09-27T13:26:20;1.10;;;0.67;;
18449;SDS011;9354;50.194;7.690;2022-09-27T13:28:59;1.60;;;0.50;;
18449;SDS011;9354;50.194;7.690;2022-09-27T13:34:43;1.30;;;0.73;;
18449;SDS011;9354;50.194;7.690;2022-09-27T13:37:31;1.57;;;0.70;;
18449;SDS011;9354;50.194;7.690;2022-09-27T13:40:09;1.27;;;0.70;;
18449;SDS011;9354;50.194;7.690;2022-09-27T13:42:48;0.80;;;0.70;;
18449;SDS011;9354;50.194;7.690;2022-09-27T13:45:30;1.40;;;0.90;;
18449;SDS011;9354;50.194;7.690;2022-09-27T13:48:06;1.30;;;0.60;;
18449;SDS011;9354;50.194;7.690;2022-09-27T13:50:38;1.03;;;0.70;;
18449;SDS011;9354;50.194;7.690;2022-09-27T13:53:16;1.33;;;0.60;;
18449;SDS011;9354;50.194;7.690;2022-09-27T13:55:51;1.20;;;0.57;;
18449;SDS011;9354;50.194;7.690;2022-09-27T14:01:21;5.50;;;1.90;;
18449;SDS011;9354;50.194;7.690;2022-09-27T14:03:55;2.27;;;0.60;;
18449;SDS011;9354;50.194;7.690;2022-09-27T14:06:28;1.17;;;0.63;;
18449;SDS011;9354;50.194;7.690;2022-09-27T14:09:02;1.60;;;0.73;;
18449;SDS011;9354;50.194;7.690;2022-09-27T14:11:32;1.47;;;0.73;;
18449;SDS011;9354;50.194;7.690;2022-09-27T14:14:02;1.67;;;0.87;;
18449;SDS011;9354;50.194;7.690;2022-09-27T14:16:33;1.87;;;0.80;;
18449;SDS011;9354;50.194;7.690;2022-09-27T14:19:08;3.43;;;0.70;;
18449;SDS011;9354;50.194;7.690;2022-09-27T14:21:40;1.53;;;0.80;;
18449;SDS011;9354;50.194;7.690;2022-09-27T14:24:42;1.43;;;0.77;;
18449;SDS011;9354;50.194;7.690;2022-09-27T14:27:12;1.37;;;0.80;;
18449;SDS011;9354;50.194;7.690;2022-09-27T14:29:43;3.33;;;0.77;;
18449;SDS011;9354;50.194;7.690;2022-09-27T14:32:13;3.07;;;0.70;;
18449;SDS011;9354;50.194;7.690;2022-09-27T14:34:42;1.70;;;0.70;;
18449;SDS011;9354;50.194;7.690;2022-09-27T14:37:18;1.10;;;0.63;;
18449;SDS011;9354;50.194;7.690;2022-09-27T14:39:53;3.07;;;0.73;;
18449;SDS011;9354;50.194;7.690;2022-09-27T14:42:23;0.67;;;0.50;;
18449;SDS011;9354;50.194;7.690;2022-09-27T14:44:54;3.50;;;0.70;;
18449;SDS011;9354;50.194;7.690;2022-09-27T14:47:26;1.63;;;0.60;;
18449;SDS011;9354;50.194;7.690;2022-09-27T14:49:54;2.10;;;0.53;;
18449;SDS011;9354;50.194;7.690;2022-09-27T14:52:24;1.00;;;0.60;;
18449;SDS011;9354;50.194;7.690;2022-09-27T14:54:55;2.93;;;1.20;;
18449;SDS011;9354;50.194;7.690;2022-09-27T14:57:24;4.83;;;2.80;;
18449;SDS011;9354;50.194;7.690;2022-09-27T14:59:52;5.63;;;1.50;;
18449;SDS011;9354;50.194;7.690;2022-09-27T15:02:22;3.73;;;1.70;;
18449;SDS011;9354;50.194;7.690;2022-09-27T15:04:52;2.77;;;1.40;;
18449;SDS011;9354;50.194;7.690;2022-09-27T15:07:20;2.30;;;1.50;;
18449;SDS011;9354;50.194;7.690;2022-09-27T15:09:48;3.57;;;1.40;;
18449;SDS011;9354;50.194;7.690;2022-09-27T15:12:20;2.57;;;1.70;;
18449;SDS011;9354;50.194;7.690;2022-09-27T15:14:51;21.70;;;7.67;;
18449;SDS011;9354;50.194;7.690;2022-09-27T15:17:22;7.30;;;4.10;;
18449;SDS011;9354;50.194;7.690;2022-09-27T15:20:01;4.00;;;1.93;;
18449;SDS011;9354;50.194;7.690;2022-09-27T15:22:44;2.70;;;1.20;;
18449;SDS011;9354;50.194;7.690;2022-09-27T15:25:20;3.43;;;1.20;;
18449;SDS011;9354;50.194;7.690;2022-09-27T15:27:57;2.90;;;1.33;;
18449;SDS011;9354;50.194;7.690;2022-09-27T15:30:26;3.00;;;1.07;;
18449;SDS011;9354;50.194;7.690;2022-09-27T15:32:59;3.00;;;0.90;;
18449;SDS011;9354;50.194;7.690;2022-09-27T15:35:29;2.43;;;1.00;;
18449;SDS011;9354;50.194;7.690;2022-09-27T15:38:11;1.53;;;0.90;;
18449;SDS011;9354;50.194;7.690;2022-09-27T15:40:57;1.00;;;0.73;;
18449;SDS011;9354;50.194;7.690;2022-09-27T15:43:27;1.13;;;0.90;;
18449;SDS011;9354;50.194;7.690;2022-09-27T15:45:57;2.17;;;1.03;;
18449;SDS011;9354;50.194;7.690;2022-09-27T15:48:27;3.97;;;1.20;;
18449;SDS011;9354;50.194;7.690;2022-09-27T15:50:58;1.60;;;0.90;;
18449;SDS011;9354;50.194;7.690;2022-09-27T15:53:41;12.03;;;1.53;;
18449;SDS011;9354;50.194;7.690;2022-09-27T15:56:11;2.70;;;1.20;;